Portada
METAR-TAF:

METAR-TAF

Aeroports :

Kosrae, Micronèsia

latitud: 05-21N, longitud: 162-57E, altitud: 3 m

Observació

L'informe es va fer fa 8 hores i 30 minuts, a les 04:50 UTC
Vent 9 kt del Est
Temperatura 29°C
Humitat 74%
Pressió 1008 hPa
Visibilitat: 16.1 km
Cel ennuvolat a una alçada de 1700 ft, Cumulus congestus.
Cel ennuvolat a una alçada de 13000 ft
Cel cobert a una alçada de 30000 ft
xàfecs en les proximitats

METAR: PTSA 210450Z 10009KT 10SM VCSH BKN017TCU BKN130 OVC300 29/24 A2978 RMK VCSH SW TCU E-S-SW LAST

Hora: 00:20 (13:20 UTC)

Pronòstic

L'informe es va fer fa 12 hores i 36 minuts, a les 00:44 UTC
Pronòstic vàlid del 21 a les 01 UTC al 21 a les 24 UTC
Vent 11 kt del Est
Visibilitat: 10 km
Núvols disperses a una alçada de 1800 ft
Núvols disperses a una alçada de 5000 ft
xàfecs en les proximitats

TAF: PTSA 210044Z 2101/2124 09011KT P6SM VCSH SCT018 SCT050

Observacions i pronòstics meteorològics de més de 4000 aeroports (METAR i TAF).

Les estacions disponibles són els punts grocs i vermells al mapa.

Posi el ratolí al punt desitjat per veure el nom de l'estació.

Feu clic per veure les observacions i els pronòstics meteorològics.

Per canviar el mapa: feu clic els botons verds amb una creu de color negre per apropar; al botó verd amb un guió per allunyar la imatge; o en les fletxes verdes per a mapes adjacents.


METAR-TAF: